createdAt,value
2018-06-04T00:00:08.812Z,975.95
2018-06-04T00:01:09.023Z,975.96
2018-06-04T00:02:09.269Z,975.98
2018-06-04T00:03:09.516Z,975.95
2018-06-04T00:04:09.730Z,975.93
2018-06-04T00:05:09.992Z,975.98
2018-06-04T00:06:10.251Z,975.92
2018-06-04T00:07:10.460Z,975.89
2018-06-04T00:08:10.753Z,975.89
2018-06-04T00:09:10.927Z,975.87
2018-06-04T00:10:11.165Z,975.88
2018-06-04T00:11:11.412Z,975.88
2018-06-04T00:12:11.660Z,975.89
2018-06-04T00:13:11.889Z,975.89
2018-06-04T00:14:12.126Z,975.84
2018-06-04T00:15:12.367Z,975.85
2018-06-04T00:16:12.626Z,975.83
2018-06-04T00:17:12.855Z,975.84
2018-06-04T00:18:13.109Z,975.82
2018-06-04T00:19:13.335Z,975.81
2018-06-04T00:20:13.580Z,975.79
2018-06-04T00:21:13.808Z,975.83
2018-06-04T00:22:14.077Z,975.82
2018-06-04T00:23:14.306Z,975.81
2018-06-04T00:24:14.545Z,975.83
2018-06-04T00:25:14.804Z,975.80
2018-06-04T00:26:15.044Z,975.75
2018-06-04T00:27:15.308Z,975.80
2018-06-04T00:28:15.542Z,975.78
2018-06-04T00:29:15.770Z,975.75
2018-06-04T00:30:16.010Z,975.77
2018-06-04T00:31:16.247Z,975.77
2018-06-04T00:32:16.518Z,975.74
2018-06-04T00:33:16.716Z,975.73
2018-06-04T00:34:16.959Z,975.77
2018-06-04T00:35:17.205Z,975.75
2018-06-04T00:36:17.438Z,975.72
2018-06-04T00:37:17.673Z,975.74
2018-06-04T00:38:17.906Z,975.76
2018-06-04T00:39:18.143Z,975.71
2018-06-04T00:40:18.390Z,975.73
2018-06-04T00:41:18.624Z,975.72
2018-06-04T00:42:18.863Z,975.70
2018-06-04T00:43:19.108Z,975.70
2018-06-04T00:44:19.345Z,975.71
2018-06-04T00:45:19.593Z,975.71
2018-06-04T00:46:19.842Z,975.69
2018-06-04T00:47:20.054Z,975.68
2018-06-04T00:48:20.300Z,975.64
2018-06-04T00:49:20.535Z,975.64
2018-06-04T00:50:20.782Z,975.62
2018-06-04T00:51:21.043Z,975.63
2018-06-04T00:52:21.280Z,975.59
2018-06-04T00:53:21.517Z,975.55
2018-06-04T00:54:21.735Z,975.55
2018-06-04T00:55:21.972Z,975.55
2018-06-04T00:56:22.239Z,975.57
2018-06-04T00:57:22.454Z,975.52
2018-06-04T00:58:22.716Z,975.56
2018-06-04T00:59:22.949Z,975.55
2018-06-04T01:00:23.162Z,975.59
2018-06-04T01:01:23.436Z,975.57
2018-06-04T01:02:23.665Z,975.56
2018-06-04T01:03:23.908Z,975.58
2018-06-04T01:04:24.139Z,975.63
2018-06-04T01:05:24.381Z,975.63
2018-06-04T01:06:24.625Z,975.64
2018-06-04T01:07:24.841Z,975.61
2018-06-04T01:08:25.095Z,975.61
2018-06-04T01:09:25.313Z,975.63
2018-06-04T01:10:25.573Z,975.64
2018-06-04T01:11:25.811Z,975.61
2018-06-04T01:12:26.025Z,975.61
2018-06-04T01:13:26.266Z,975.59
2018-06-04T01:14:26.513Z,975.58
2018-06-04T01:15:26.764Z,975.57
2018-06-04T01:16:26.987Z,975.59
2018-06-04T01:17:27.227Z,975.54
2018-06-04T01:18:27.480Z,975.57
2018-06-04T01:19:27.727Z,975.57
2018-06-04T01:20:27.996Z,975.56
2018-06-04T01:21:28.223Z,975.52
2018-06-04T01:22:28.472Z,975.51
2018-06-04T01:23:28.728Z,975.52
2018-06-04T01:24:28.969Z,975.52
2018-06-04T01:25:29.190Z,975.52
2018-06-04T01:26:29.438Z,975.53
2018-06-04T01:27:29.683Z,975.55
2018-06-04T01:28:29.929Z,975.50
2018-06-04T01:29:30.131Z,975.56
2018-06-04T01:30:30.393Z,975.51
2018-06-04T01:31:30.610Z,975.50
2018-06-04T01:32:30.880Z,975.48
2018-06-04T01:33:31.103Z,975.46
2018-06-04T01:34:31.342Z,975.45
2018-06-04T01:35:31.588Z,975.44
2018-06-04T01:36:31.816Z,975.48
2018-06-04T01:37:32.057Z,975.44
2018-06-04T01:38:32.306Z,975.42
2018-06-04T01:39:32.552Z,975.41
2018-06-04T01:40:32.791Z,975.42
2018-06-04T01:41:33.028Z,975.43
2018-06-04T01:42:33.272Z,975.41
2018-06-04T01:43:33.524Z,975.40
2018-06-04T01:44:33.743Z,975.38
2018-06-04T01:45:33.963Z,975.38
2018-06-04T01:46:34.194Z,975.36
2018-06-04T01:47:34.441Z,975.31
2018-06-04T01:48:34.681Z,975.32
2018-06-04T01:49:34.902Z,975.32
2018-06-04T01:50:35.174Z,975.29
2018-06-04T01:51:35.372Z,975.29
2018-06-04T01:52:35.597Z,975.27
2018-06-04T01:53:35.838Z,975.26
2018-06-04T01:54:36.104Z,975.26
2018-06-04T01:55:36.359Z,975.21
2018-06-04T01:56:36.591Z,975.21
2018-06-04T01:57:36.832Z,975.19
2018-06-04T01:58:37.065Z,975.16
2018-06-04T01:59:37.320Z,975.18
2018-06-04T02:00:37.531Z,975.17
2018-06-04T02:01:37.774Z,975.16
2018-06-04T02:02:38.004Z,975.16
2018-06-04T02:03:38.236Z,975.17
2018-06-04T02:04:38.487Z,975.16
2018-06-04T02:05:38.712Z,975.18
2018-06-04T02:06:38.964Z,975.16
2018-06-04T02:07:39.211Z,975.18
2018-06-04T02:08:39.416Z,975.20
2018-06-04T02:09:39.661Z,975.18
2018-06-04T02:10:39.903Z,975.20
2018-06-04T02:11:40.150Z,975.19
2018-06-04T02:12:40.379Z,975.14
2018-06-04T02:13:40.608Z,975.19
2018-06-04T02:14:40.864Z,975.13
2018-06-04T02:15:41.073Z,975.15
2018-06-04T02:16:41.315Z,975.13
2018-06-04T02:17:41.560Z,975.09
2018-06-04T02:18:41.793Z,975.15
2018-06-04T02:19:42.041Z,975.08
2018-06-04T02:20:42.289Z,975.07
2018-06-04T02:21:42.536Z,975.01
2018-06-04T02:22:42.760Z,975.05
2018-06-04T02:23:43.034Z,975.00
2018-06-04T02:24:43.260Z,975.03
2018-06-04T02:25:43.496Z,974.99
2018-06-04T02:26:43.722Z,975.02
2018-06-04T02:27:43.969Z,975.01
2018-06-04T02:28:44.205Z,974.99
2018-06-04T02:29:44.445Z,975.00
2018-06-04T02:30:44.667Z,975.00
2018-06-04T02:31:44.899Z,975.02
2018-06-04T02:32:45.126Z,975.01
2018-06-04T02:33:45.372Z,975.02
2018-06-04T02:34:45.634Z,975.02
2018-06-04T02:35:45.896Z,975.00
2018-06-04T02:36:46.120Z,974.99
2018-06-04T02:37:46.340Z,974.94
2018-06-04T02:38:46.600Z,974.99
2018-06-04T02:39:46.807Z,974.98
2018-06-04T02:40:47.056Z,974.96
2018-06-04T02:41:47.289Z,974.93
2018-06-04T02:42:47.553Z,974.95
2018-06-04T02:43:47.787Z,974.96
2018-06-04T02:44:48.011Z,974.93
2018-06-04T02:45:48.253Z,974.99
2018-06-04T02:46:48.484Z,975.00
2018-06-04T02:47:48.732Z,975.01
2018-06-04T02:48:48.956Z,974.99
2018-06-04T02:49:49.286Z,975.03
2018-06-04T02:50:49.441Z,975.03
2018-06-04T02:51:49.680Z,975.02
2018-06-04T02:52:49.928Z,974.99
2018-06-04T02:53:50.158Z,975.01
2018-06-04T02:54:50.411Z,975.02
2018-06-04T02:55:50.626Z,974.95
2018-06-04T02:56:50.861Z,974.98
2018-06-04T02:57:51.123Z,974.99
2018-06-04T02:58:51.353Z,975.00
2018-06-04T02:59:51.586Z,975.02
2018-06-04T03:00:51.859Z,975.02
2018-06-04T03:01:52.063Z,975.05
2018-06-04T03:02:52.306Z,975.02
2018-06-04T03:03:52.545Z,975.01
2018-06-04T03:04:52.787Z,975.02
2018-06-04T03:05:53.026Z,975.05
2018-06-04T03:06:53.284Z,975.03
2018-06-04T03:07:53.501Z,975.05
2018-06-04T03:08:53.740Z,975.06
2018-06-04T03:09:54.001Z,975.08
2018-06-04T03:10:54.236Z,975.06
2018-06-04T03:11:54.485Z,975.10
2018-06-04T03:12:54.730Z,975.12
2018-06-04T03:13:54.987Z,975.13
2018-06-04T03:14:55.189Z,975.14
2018-06-04T03:15:55.461Z,975.13
2018-06-04T03:16:55.685Z,975.09
2018-06-04T03:17:55.909Z,975.11
2018-06-04T03:18:56.154Z,975.07
2018-06-04T03:19:56.404Z,975.07
2018-06-04T03:20:56.642Z,975.04
2018-06-04T03:21:56.874Z,975.05
2018-06-04T03:22:57.108Z,975.05
2018-06-04T03:23:57.340Z,975.04
2018-06-04T03:24:57.600Z,975.05
2018-06-04T03:25:57.844Z,975.03
2018-06-04T03:26:58.074Z,975.05
2018-06-04T03:27:58.302Z,975.06
2018-06-04T03:28:58.557Z,975.03
2018-06-04T03:29:58.803Z,975.03
2018-06-04T03:30:59.030Z,975.02
2018-06-04T03:31:59.277Z,975.00
2018-06-04T03:32:59.507Z,974.98
2018-06-04T03:33:59.744Z,974.96
2018-06-04T03:34:59.981Z,974.95
2018-06-04T03:36:00.241Z,974.92
2018-06-04T03:37:00.482Z,974.93
2018-06-04T03:38:00.747Z,974.93
2018-06-04T03:39:00.972Z,974.91
2018-06-04T03:40:01.220Z,974.93
2018-06-04T03:41:01.462Z,974.94
2018-06-04T03:42:01.696Z,974.88
2018-06-04T03:43:01.926Z,974.89
2018-06-04T03:44:02.202Z,974.90
2018-06-04T03:45:02.438Z,974.93
2018-06-04T03:46:02.673Z,974.95
2018-06-04T03:47:02.922Z,974.93
2018-06-04T03:48:03.140Z,974.93
2018-06-04T03:49:03.400Z,974.93
2018-06-04T03:50:03.628Z,974.89
2018-06-04T03:51:03.864Z,974.91
2018-06-04T03:52:04.095Z,974.93
2018-06-04T03:53:04.329Z,974.94
2018-06-04T03:54:04.580Z,974.90
2018-06-04T03:55:04.815Z,974.91
2018-06-04T03:56:05.055Z,974.89
2018-06-04T03:57:05.275Z,974.89
2018-06-04T03:58:05.538Z,974.89
2018-06-04T03:59:05.759Z,974.91
2018-06-04T04:00:05.989Z,974.90
2018-06-04T04:01:06.236Z,974.90
2018-06-04T04:02:06.468Z,974.90
2018-06-04T04:03:06.696Z,974.92
2018-06-04T04:04:06.938Z,974.91
2018-06-04T04:05:07.180Z,974.90
2018-06-04T04:06:07.440Z,974.93
2018-06-04T04:07:07.690Z,974.91
2018-06-04T04:08:07.928Z,974.88
2018-06-04T04:09:08.176Z,974.89
2018-06-04T04:10:08.412Z,974.90
2018-06-04T04:11:08.651Z,974.89
2018-06-04T04:12:08.901Z,974.86
2018-06-04T04:13:09.134Z,974.88
2018-06-04T04:14:09.368Z,974.89
2018-06-04T04:15:09.639Z,974.85
2018-06-04T04:16:09.860Z,974.87
2018-06-04T04:17:10.093Z,974.84
2018-06-04T04:18:10.348Z,974.90
2018-06-04T04:19:10.571Z,974.88
2018-06-04T04:20:10.805Z,974.91
2018-06-04T04:21:11.050Z,974.89
2018-06-04T04:22:11.295Z,974.86
2018-06-04T04:23:11.529Z,974.89
2018-06-04T04:24:11.766Z,974.89
2018-06-04T04:25:12.008Z,974.89
2018-06-04T04:26:12.255Z,974.89
2018-06-04T04:27:12.487Z,974.92
2018-06-04T04:28:12.736Z,974.88
2018-06-04T04:29:12.967Z,974.87
2018-06-04T04:30:13.206Z,974.93
2018-06-04T04:31:13.459Z,974.88
2018-06-04T04:32:13.687Z,974.90
2018-06-04T04:33:13.928Z,974.90
2018-06-04T04:34:14.162Z,974.88
2018-06-04T04:35:14.399Z,974.91
2018-06-04T04:36:14.639Z,974.92
2018-06-04T04:37:14.872Z,974.91
2018-06-04T04:38:15.122Z,974.91
2018-06-04T04:39:15.363Z,974.91
2018-06-04T04:40:15.618Z,974.90
2018-06-04T04:41:15.896Z,974.92
2018-06-04T04:42:16.119Z,974.92
2018-06-04T04:43:16.329Z,974.97
2018-06-04T04:44:16.577Z,974.97
2018-06-04T04:45:25.585Z,974.97
2018-06-04T04:46:17.110Z,974.98
2018-06-04T04:47:17.351Z,974.93
2018-06-04T04:48:17.595Z,974.98
2018-06-04T04:49:17.851Z,974.94
2018-06-04T04:50:18.085Z,974.95
2018-06-04T04:51:18.307Z,974.98
2018-06-04T04:52:18.559Z,974.99
2018-06-04T04:53:18.790Z,975.02
2018-06-04T04:54:19.014Z,975.02
2018-06-04T04:55:19.253Z,975.04
2018-06-04T04:56:19.499Z,975.06
2018-06-04T04:57:19.758Z,975.07
2018-06-04T04:58:19.973Z,975.05
2018-06-04T04:59:20.222Z,975.06
2018-06-04T05:00:20.475Z,975.05
2018-06-04T05:01:20.688Z,975.07
2018-06-04T05:02:20.956Z,975.09
2018-06-04T05:03:21.174Z,975.06
2018-06-04T05:04:21.402Z,975.08
2018-06-04T05:05:21.676Z,975.05
2018-06-04T05:06:21.898Z,975.03
2018-06-04T05:07:22.159Z,975.07
2018-06-04T05:08:22.403Z,975.05
2018-06-04T05:09:22.626Z,975.01
2018-06-04T05:10:22.893Z,975.03
2018-06-04T05:11:23.154Z,975.01
2018-06-04T05:12:23.376Z,975.01
2018-06-04T05:13:23.622Z,975.01
2018-06-04T05:14:23.860Z,975.03
2018-06-04T05:15:24.100Z,974.99
2018-06-04T05:16:24.329Z,975.01
2018-06-04T05:17:24.571Z,975.00
2018-06-04T05:18:24.815Z,974.97
2018-06-04T05:19:25.069Z,974.99
2018-06-04T05:20:25.297Z,974.96
2018-06-04T05:21:25.558Z,974.95
2018-06-04T05:22:25.798Z,974.96
2018-06-04T05:23:26.061Z,974.91
2018-06-04T05:24:26.272Z,974.91
2018-06-04T05:25:26.526Z,974.89
2018-06-04T05:26:26.775Z,974.92
2018-06-04T05:27:26.989Z,974.89
2018-06-04T05:28:27.228Z,974.88
2018-06-04T05:29:27.475Z,974.94
2018-06-04T05:30:27.751Z,974.92
2018-06-04T05:31:27.959Z,974.93
2018-06-04T05:32:28.271Z,974.92
2018-06-04T05:33:28.506Z,974.91
2018-06-04T05:34:29.204Z,974.91
2018-06-04T05:35:28.974Z,974.94
2018-06-04T05:36:29.304Z,974.91
2018-06-04T05:37:29.511Z,974.91
2018-06-04T05:38:29.747Z,974.93
2018-06-04T05:39:29.995Z,974.92
2018-06-04T05:40:30.257Z,974.92
2018-06-04T05:41:30.479Z,974.92
2018-06-04T05:42:30.727Z,974.92
2018-06-04T05:43:30.937Z,974.91
2018-06-04T05:44:31.191Z,974.90
2018-06-04T05:45:31.450Z,974.89
2018-06-04T05:46:31.695Z,974.91
2018-06-04T05:47:31.929Z,974.94
2018-06-04T05:48:32.183Z,974.95
2018-06-04T05:49:32.414Z,974.92
2018-06-04T05:50:32.686Z,974.94
2018-06-04T05:51:32.904Z,974.94
2018-06-04T05:52:33.139Z,974.95
2018-06-04T05:53:33.388Z,974.92
2018-06-04T05:54:33.634Z,974.92
2018-06-04T05:55:33.868Z,974.96
2018-06-04T05:56:34.114Z,974.93
2018-06-04T05:57:34.363Z,974.98
2018-06-04T05:58:34.584Z,974.97
2018-06-04T05:59:34.842Z,974.94
2018-06-04T06:00:35.068Z,974.98
2018-06-04T06:01:35.312Z,974.94
2018-06-04T06:02:35.551Z,974.94
2018-06-04T06:03:35.792Z,974.92
2018-06-04T06:04:36.034Z,974.90
2018-06-04T06:05:36.267Z,974.92
2018-06-04T06:06:36.509Z,974.93
2018-06-04T06:07:36.754Z,974.90
2018-06-04T06:08:37.008Z,974.89
2018-06-04T06:09:37.252Z,974.91
2018-06-04T06:10:37.492Z,974.89
2018-06-04T06:11:37.726Z,974.94
2018-06-04T06:12:37.958Z,974.91
2018-06-04T06:13:38.208Z,974.91
2018-06-04T06:14:38.458Z,974.90
2018-06-04T06:15:38.695Z,974.90
2018-06-04T06:16:38.942Z,974.95
2018-06-04T06:17:39.188Z,974.93
2018-06-04T06:18:39.431Z,974.93
2018-06-04T06:19:39.667Z,974.86
2018-06-04T06:20:39.911Z,974.93
2018-06-04T06:21:40.157Z,974.88
2018-06-04T06:22:40.404Z,974.87
2018-06-04T06:23:40.662Z,974.88
2018-06-04T06:24:40.896Z,974.88
2018-06-04T06:25:41.135Z,974.88
2018-06-04T06:26:41.364Z,974.89
2018-06-04T06:27:41.609Z,974.88
2018-06-04T06:28:41.849Z,974.87
2018-06-04T06:29:42.092Z,974.86
2018-06-04T06:30:42.346Z,974.89
2018-06-04T06:31:42.576Z,974.87
2018-06-04T06:32:42.819Z,974.81
2018-06-04T06:33:43.082Z,974.82
2018-06-04T06:34:43.320Z,974.82
2018-06-04T06:35:43.539Z,974.79
2018-06-04T06:36:43.779Z,974.82
2018-06-04T06:37:44.017Z,974.82
2018-06-04T06:38:44.280Z,974.83
2018-06-04T06:39:44.494Z,974.78
2018-06-04T06:40:44.732Z,974.79
2018-06-04T06:41:44.981Z,974.76
2018-06-04T06:42:45.225Z,974.78
2018-06-04T06:43:45.464Z,974.72
2018-06-04T06:44:45.702Z,974.71
2018-06-04T06:45:45.948Z,974.69
2018-06-04T06:46:46.164Z,974.66
2018-06-04T06:47:46.411Z,974.71
2018-06-04T06:48:46.660Z,974.67
2018-06-04T06:49:46.883Z,974.68
2018-06-04T06:50:47.131Z,974.65
2018-06-04T06:51:47.383Z,974.66
2018-06-04T06:52:47.628Z,974.63
2018-06-04T06:53:47.868Z,974.63
2018-06-04T06:54:48.103Z,974.66
2018-06-04T06:55:48.354Z,974.63
2018-06-04T06:56:48.599Z,974.63
2018-06-04T06:57:48.843Z,974.65
2018-06-04T06:58:49.096Z,974.63
2018-06-04T06:59:49.330Z,974.62
2018-06-04T07:00:49.578Z,974.67
2018-06-04T07:01:49.825Z,974.63
2018-06-04T07:02:50.074Z,974.63
2018-06-04T07:03:50.334Z,974.64
2018-06-04T07:04:50.541Z,974.59
2018-06-04T07:05:50.803Z,974.60
2018-06-04T07:06:51.036Z,974.59
2018-06-04T07:07:51.283Z,974.65
2018-06-04T07:08:51.527Z,974.62
2018-06-04T07:09:51.781Z,974.59
2018-06-04T07:10:52.017Z,974.58
2018-06-04T07:11:52.266Z,974.62
2018-06-04T07:12:52.499Z,974.59
2018-06-04T07:13:52.753Z,974.56
2018-06-04T07:14:52.990Z,974.57
2018-06-04T07:15:53.243Z,974.57
2018-06-04T07:16:53.509Z,974.56
2018-06-04T07:17:53.755Z,974.57
2018-06-04T07:18:53.995Z,974.55
2018-06-04T07:19:54.228Z,974.55
2018-06-04T07:20:54.468Z,974.55
2018-06-04T07:21:54.719Z,974.58
2018-06-04T07:22:54.969Z,974.58
2018-06-04T07:23:55.208Z,974.59
2018-06-04T07:24:55.453Z,974.60
2018-06-04T07:25:55.706Z,974.59
2018-06-04T07:26:55.952Z,974.60
2018-06-04T07:27:56.204Z,974.54
2018-06-04T07:28:56.453Z,974.56
2018-06-04T07:29:56.684Z,974.58
2018-06-04T07:30:56.932Z,974.62
2018-06-04T07:31:57.184Z,974.64
2018-06-04T07:32:57.426Z,974.56
2018-06-04T07:33:57.689Z,974.59
2018-06-04T07:34:57.972Z,974.59
2018-06-04T07:35:58.172Z,974.60
2018-06-04T07:36:58.425Z,974.57
2018-06-04T07:37:58.677Z,974.59
2018-06-04T07:38:58.929Z,974.59
2018-06-04T07:39:59.179Z,974.57
2018-06-04T07:40:59.445Z,974.57
2018-06-04T07:41:59.688Z,974.57
2018-06-04T07:42:59.935Z,974.60
2018-06-04T07:44:00.193Z,974.62
2018-06-04T07:45:00.432Z,974.55
2018-06-04T07:46:00.681Z,974.56
2018-06-04T07:47:00.944Z,974.57
2018-06-04T07:48:01.200Z,974.55
2018-06-04T07:49:01.449Z,974.56
2018-06-04T07:50:01.704Z,974.54
2018-06-04T07:51:01.959Z,974.56
2018-06-04T07:52:02.211Z,974.53
2018-06-04T07:53:02.465Z,974.53
2018-06-04T07:54:02.719Z,974.49
2018-06-04T07:55:02.963Z,974.49
2018-06-04T07:56:03.237Z,974.47
2018-06-04T07:57:03.481Z,974.51
2018-06-04T07:58:03.733Z,974.48
2018-06-04T07:59:03.988Z,974.47
2018-06-04T08:00:04.247Z,974.46
2018-06-04T08:01:04.501Z,974.46
2018-06-04T08:02:04.760Z,974.43
2018-06-04T08:03:05.010Z,974.45
2018-06-04T08:04:05.267Z,974.42
2018-06-04T08:05:05.523Z,974.45
2018-06-04T08:06:05.779Z,974.49
2018-06-04T08:07:06.028Z,974.49
2018-06-04T08:08:06.280Z,974.47
2018-06-04T08:09:06.543Z,974.47
2018-06-04T08:10:06.884Z,974.47
2018-06-04T08:11:07.051Z,974.45
2018-06-04T08:12:07.293Z,974.45
2018-06-04T08:13:07.550Z,974.41
2018-06-04T08:14:07.807Z,974.37
2018-06-04T08:15:08.063Z,974.39
2018-06-04T08:16:08.320Z,974.39
2018-06-04T08:17:08.575Z,974.37
2018-06-04T08:18:08.831Z,974.41
2018-06-04T08:19:09.089Z,974.38
2018-06-04T08:20:09.346Z,974.36
2018-06-04T08:21:09.599Z,974.38
2018-06-04T08:22:09.859Z,974.36
2018-06-04T08:23:10.113Z,974.37
2018-06-04T08:24:10.384Z,974.37
2018-06-04T08:25:10.626Z,974.35
2018-06-04T08:26:10.888Z,974.33
2018-06-04T08:27:11.175Z,974.33
2018-06-04T08:28:11.392Z,974.34
2018-06-04T08:29:11.659Z,974.35
2018-06-04T08:30:11.906Z,974.36
2018-06-04T08:31:12.168Z,974.36
2018-06-04T08:32:12.420Z,974.35
2018-06-04T08:33:12.667Z,974.34
2018-06-04T08:34:12.926Z,974.35
2018-06-04T08:35:13.182Z,974.38
2018-06-04T08:36:13.442Z,974.36
2018-06-04T08:37:13.698Z,974.35
2018-06-04T08:38:13.955Z,974.36
2018-06-04T08:39:14.222Z,974.32
2018-06-04T08:40:14.527Z,974.31
2018-06-04T08:41:14.728Z,974.29
2018-06-04T08:42:14.987Z,974.31
2018-06-04T08:43:15.246Z,974.32
2018-06-04T08:44:15.504Z,974.29
2018-06-04T08:45:15.748Z,974.31
2018-06-04T08:46:15.998Z,974.31
2018-06-04T08:47:16.277Z,974.31
2018-06-04T08:48:16.504Z,974.34
2018-06-04T08:49:16.760Z,974.35
2018-06-04T08:50:17.033Z,974.30
2018-06-04T08:51:17.277Z,974.31
2018-06-04T08:52:17.514Z,974.28
2018-06-04T08:53:17.790Z,974.30
2018-06-04T08:54:18.043Z,974.27
2018-06-04T08:55:18.305Z,974.32
2018-06-04T08:56:18.614Z,974.30
2018-06-04T08:57:18.811Z,974.28
2018-06-04T08:58:19.069Z,974.29
2018-06-04T08:59:19.322Z,974.32
2018-06-04T09:00:19.585Z,974.33
2018-06-04T09:01:19.840Z,974.35
2018-06-04T09:02:20.103Z,974.38
2018-06-04T09:03:20.359Z,974.42
2018-06-04T09:04:20.609Z,974.47
2018-06-04T09:05:20.864Z,974.51
2018-06-04T09:06:21.126Z,974.54
2018-06-04T09:07:21.386Z,974.51
2018-06-04T09:08:21.644Z,974.49
2018-06-04T09:09:21.901Z,974.23
2018-06-04T09:10:22.159Z,974.40
2018-06-04T09:11:22.421Z,974.41
2018-06-04T09:12:22.674Z,974.38
2018-06-04T09:13:22.933Z,974.38
2018-06-04T09:14:23.191Z,974.34
2018-06-04T09:15:23.459Z,974.38
2018-06-04T09:16:23.711Z,974.37
2018-06-04T09:17:23.966Z,974.40
2018-06-04T09:18:24.225Z,974.40
2018-06-04T09:19:24.482Z,974.39
2018-06-04T09:20:24.742Z,974.43
2018-06-04T09:21:24.997Z,974.42
2018-06-04T09:22:25.256Z,974.38
2018-06-04T09:23:25.520Z,974.38
2018-06-04T09:24:25.772Z,974.18
2018-06-04T09:25:26.031Z,974.35
2018-06-04T09:26:26.289Z,974.30
2018-06-04T09:27:26.548Z,974.35
2018-06-04T09:28:26.811Z,974.35
2018-06-04T09:29:27.066Z,974.37
2018-06-04T09:30:27.325Z,974.39
2018-06-04T09:31:27.575Z,974.37
2018-06-04T09:32:27.833Z,974.38
2018-06-04T09:33:28.095Z,974.41
2018-06-04T09:34:28.356Z,974.40
2018-06-04T09:35:28.615Z,974.42
2018-06-04T09:36:28.881Z,974.39
2018-06-04T09:37:29.132Z,974.40
2018-06-04T09:38:29.390Z,974.43
2018-06-04T09:39:29.654Z,974.44
2018-06-04T09:40:29.911Z,974.44
2018-06-04T09:41:30.171Z,974.43
2018-06-04T09:42:30.432Z,974.45
2018-06-04T09:43:30.690Z,974.37
2018-06-04T09:44:30.948Z,974.38
2018-06-04T09:45:31.209Z,974.40
2018-06-04T09:46:31.474Z,974.40
2018-06-04T09:47:31.782Z,974.38
2018-06-04T09:48:31.984Z,974.33
2018-06-04T09:49:32.242Z,974.39
2018-06-04T09:50:32.502Z,974.41
2018-06-04T09:51:32.761Z,974.43
2018-06-04T09:52:33.020Z,974.44
2018-06-04T09:53:33.269Z,974.47
2018-06-04T09:54:33.528Z,974.46
2018-06-04T09:55:33.783Z,974.47
2018-06-04T09:56:34.041Z,974.49
2018-06-04T09:57:34.300Z,974.49
2018-06-04T09:58:34.558Z,974.52
2018-06-04T09:59:34.826Z,974.50
2018-06-04T10:00:35.080Z,974.51
2018-06-04T10:01:35.341Z,974.49
2018-06-04T10:02:35.601Z,974.52
2018-06-04T10:03:35.859Z,974.47
2018-06-04T10:04:36.159Z,974.49
2018-06-04T10:05:36.382Z,974.61
2018-06-04T10:06:36.641Z,974.96
2018-06-04T10:07:36.901Z,975.22
2018-06-04T10:08:37.158Z,975.22
2018-06-04T10:09:37.418Z,975.19
2018-06-04T10:10:37.678Z,975.18
2018-06-04T10:11:37.939Z,975.24
2018-06-04T10:12:38.204Z,975.32
2018-06-04T10:13:38.461Z,975.37
2018-06-04T10:14:38.719Z,975.30
2018-06-04T10:15:38.979Z,975.22
2018-06-04T10:16:39.241Z,975.18
2018-06-04T10:17:39.500Z,975.20
2018-06-04T10:18:39.762Z,975.13
2018-06-04T10:19:40.024Z,975.13
2018-06-04T10:20:40.283Z,975.10
2018-06-04T10:21:40.539Z,975.11
2018-06-04T10:22:40.797Z,975.14
2018-06-04T10:23:41.108Z,975.13
2018-06-04T10:24:41.321Z,975.24
2018-06-04T10:25:41.590Z,975.36
2018-06-04T10:26:41.840Z,975.23
2018-06-04T10:27:42.099Z,974.98
2018-06-04T10:28:42.359Z,974.81
2018-06-04T10:29:42.624Z,974.65
2018-06-04T10:30:42.879Z,974.53
2018-06-04T10:31:43.142Z,974.48
2018-06-04T10:32:43.400Z,974.25
2018-06-04T10:33:43.719Z,974.05
2018-06-04T10:34:43.920Z,974.37
2018-06-04T10:35:44.181Z,974.39
2018-06-04T10:36:44.440Z,974.34
2018-06-04T10:37:44.705Z,974.11
2018-06-04T10:38:44.959Z,974.10
2018-06-04T10:39:45.220Z,974.15
2018-06-04T10:40:45.483Z,974.16
2018-06-04T10:41:45.734Z,974.04
2018-06-04T10:42:46.060Z,974.06
2018-06-04T10:43:46.340Z,974.06
2018-06-04T10:44:46.600Z,974.00
2018-06-04T10:45:46.857Z,974.05
2018-06-04T10:46:47.113Z,974.02
2018-06-04T10:47:47.370Z,974.26
2018-06-04T10:48:47.628Z,974.33
2018-06-04T10:49:47.886Z,974.29
2018-06-04T10:50:48.144Z,974.25
2018-06-04T10:51:48.402Z,973.94
2018-06-04T10:52:48.648Z,974.19
2018-06-04T10:53:48.920Z,974.38
2018-06-04T10:54:49.177Z,974.41
2018-06-04T10:55:49.437Z,974.39
2018-06-04T10:56:49.692Z,974.37
2018-06-04T10:57:49.949Z,974.10
2018-06-04T10:58:50.209Z,974.34
2018-06-04T10:59:50.468Z,974.31
2018-06-04T11:00:50.728Z,974.51
2018-06-04T11:01:50.998Z,974.82
2018-06-04T11:02:51.245Z,974.93
2018-06-04T11:03:51.505Z,975.06
2018-06-04T11:04:51.782Z,974.84
2018-06-04T11:05:52.018Z,974.39
2018-06-04T11:06:52.265Z,974.23
2018-06-04T11:07:52.519Z,974.22
2018-06-04T11:08:52.778Z,974.20
2018-06-04T11:09:53.039Z,974.18
2018-06-04T11:10:53.287Z,974.24
2018-06-04T11:11:53.547Z,974.45
2018-06-04T11:12:53.807Z,974.93
2018-06-04T11:13:54.083Z,975.17
2018-06-04T11:14:54.335Z,975.17
2018-06-04T11:15:54.573Z,975.16
2018-06-04T11:16:54.842Z,975.02
2018-06-04T11:17:55.101Z,974.63
2018-06-04T11:18:55.365Z,974.41
2018-06-04T11:19:55.616Z,974.38
2018-06-04T11:20:55.879Z,974.50
2018-06-04T11:21:56.142Z,974.53
2018-06-04T11:22:56.405Z,974.53
2018-06-04T11:23:56.662Z,974.55
2018-06-04T11:24:56.922Z,974.61
2018-06-04T11:25:57.798Z,974.85
2018-06-04T11:26:57.568Z,975.24
2018-06-04T11:27:57.824Z,975.53
2018-06-04T11:28:58.081Z,975.57
2018-06-04T11:29:58.329Z,975.65
2018-06-04T11:30:58.590Z,974.91
2018-06-04T11:31:58.843Z,974.08
2018-06-04T11:32:59.103Z,974.09
2018-06-04T11:33:59.362Z,974.10
2018-06-04T11:34:59.620Z,974.06
2018-06-04T11:35:59.874Z,974.07
2018-06-04T11:37:00.136Z,974.05
2018-06-04T11:38:00.397Z,974.05
2018-06-04T11:39:00.662Z,974.04
2018-06-04T11:40:00.922Z,974.03
2018-06-04T11:41:01.187Z,974.04
2018-06-04T11:42:01.444Z,974.06
2018-06-04T11:43:01.709Z,973.61
2018-06-04T11:44:01.967Z,974.06
2018-06-04T11:45:02.237Z,974.01
2018-06-04T11:46:02.497Z,974.03
2018-06-04T11:47:02.759Z,974.01
2018-06-04T11:48:03.024Z,974.01
2018-06-04T11:49:03.279Z,973.99
2018-06-04T11:50:03.545Z,973.95
2018-06-04T11:51:03.814Z,973.95
2018-06-04T11:52:04.068Z,973.93
2018-06-04T11:53:04.331Z,973.87
2018-06-04T11:54:04.582Z,973.91
2018-06-04T11:55:04.847Z,973.59
2018-06-04T11:56:05.101Z,973.84
2018-06-04T11:57:05.367Z,973.85
2018-06-04T11:58:05.628Z,973.47
2018-06-04T11:59:05.889Z,973.86
2018-06-04T12:00:06.151Z,973.83
2018-06-04T12:01:06.414Z,973.82
2018-06-04T12:02:06.673Z,973.83
2018-06-04T12:03:06.932Z,973.81
2018-06-04T12:04:07.193Z,973.79
2018-06-04T12:05:07.496Z,973.78
2018-06-04T12:06:07.711Z,973.78
2018-06-04T12:07:07.975Z,973.78
2018-06-04T12:08:08.234Z,973.74
2018-06-04T12:09:08.490Z,973.74
2018-06-04T12:10:08.744Z,973.75
2018-06-04T12:11:09.007Z,973.80
2018-06-04T12:12:09.266Z,973.74
2018-06-04T12:13:09.525Z,973.72
2018-06-04T12:14:09.776Z,973.74
2018-06-04T12:15:10.023Z,973.68
2018-06-04T12:16:10.281Z,973.45
2018-06-04T12:17:10.543Z,973.33
2018-06-04T12:18:10.808Z,973.32
2018-06-04T12:19:11.063Z,973.31
2018-06-04T12:20:11.334Z,973.30
2018-06-04T12:21:11.581Z,973.34
2018-06-04T12:22:11.844Z,973.34
2018-06-04T12:23:12.091Z,973.34
2018-06-04T12:24:12.349Z,973.30
2018-06-04T12:25:12.610Z,973.24
2018-06-04T12:26:12.865Z,973.22
2018-06-04T12:27:13.121Z,973.27
2018-06-04T12:28:13.392Z,973.23
2018-06-04T12:29:13.635Z,973.37
2018-06-04T12:30:13.891Z,973.59
2018-06-04T12:31:14.151Z,973.37